Time;durP1;ratioP1;P1;durP2;ratioP2;P2;SDS_P1;SDS_P2;PMS_P1;PMS_P2;Temp;Humidity;BMP_temperature;BMP_pressure;BME280_temperature;BME280_humidity;BME280_pressure;Samples;Min_cycle;Max_cycle;Signal;HPM_P1;HPM_P2
2022/09/29 00:00:20;;;;;;;7.17;6.27;;;9.20;99.90;;;;;;5047638;28;20521;-69
2022/09/29 00:02:45;;;;;;;7.47;6.67;;;9.20;99.90;;;;;;5026102;28;20208;-62
2022/09/29 00:05:11;;;;;;;7.77;6.13;;;9.20;99.90;;;;;;5041992;28;20557;-62
2022/09/29 00:07:36;;;;;;;9.63;6.43;;;9.20;99.90;;;;;;5037348;28;20333;-62
2022/09/29 00:10:02;;;;;;;8.23;6.27;;;9.20;99.90;;;;;;5019281;28;20188;-64
2022/09/29 00:12:28;;;;;;;7.53;6.20;;;9.20;99.90;;;;;;5044416;28;20661;-80
2022/09/29 00:14:53;;;;;;;8.33;6.33;;;9.20;99.90;;;;;;5025753;28;20215;-70
2022/09/29 00:17:19;;;;;;;7.47;6.33;;;9.20;99.90;;;;;;5029831;28;20875;-72
2022/09/29 00:19:44;;;;;;;7.33;5.93;;;9.20;99.90;;;;;;5024403;28;20206;-66
2022/09/29 00:22:10;;;;;;;7.10;6.40;;;9.20;99.90;;;;;;5024380;28;20205;-65
2022/09/29 00:24:35;;;;;;;6.23;5.63;;;9.20;99.90;;;;;;5015476;28;20430;-66
2022/09/29 00:27:01;;;;;;;7.27;6.57;;;9.30;99.90;;;;;;5024794;28;20207;-67
2022/09/29 00:29:26;;;;;;;7.97;6.73;;;9.30;99.90;;;;;;5017894;28;20243;-65
2022/09/29 00:31:52;;;;;;;7.80;7.07;;;9.30;99.90;;;;;;5030266;28;20232;-65
2022/09/29 00:34:17;;;;;;;6.40;5.80;;;9.30;99.90;;;;;;5027195;28;20193;-65
2022/09/29 00:36:43;;;;;;;6.83;6.03;;;9.30;99.90;;;;;;5038183;28;20214;-65
2022/09/29 00:39:08;;;;;;;5.90;5.30;;;9.30;99.90;;;;;;5025395;28;20207;-66
2022/09/29 00:41:36;;;;;;;7.13;5.77;;;9.30;99.90;;;;;;5034424;28;20192;-66
2022/09/29 00:44:06;;;;;;;6.80;5.63;;;9.30;99.90;;;;;;5026140;28;20721;-66
2022/09/29 00:46:45;;;;;;;8.30;5.67;;;9.30;99.90;;;;;;5035390;28;20195;-66
2022/09/29 00:49:16;;;;;;;6.90;5.97;;;9.30;99.90;;;;;;5024692;28;20671;-66
2022/09/29 00:51:47;;;;;;;7.50;6.53;;;9.30;99.90;;;;;;5035212;28;20228;-66
2022/09/29 00:54:15;;;;;;;7.27;6.30;;;9.30;99.90;;;;;;5015834;28;20212;-66
2022/09/29 00:56:42;;;;;;;6.87;5.47;;;9.30;99.90;;;;;;5029700;28;20403;-66
2022/09/29 00:59:15;;;;;;;7.10;5.73;;;9.30;99.90;;;;;;5025458;28;20206;-67
2022/09/29 01:01:40;;;;;;;6.87;5.80;;;9.20;99.90;;;;;;5015580;28;20647;-67
2022/09/29 01:04:11;;;;;;;7.13;6.37;;;9.20;99.90;;;;;;5022231;28;20224;-67
2022/09/29 01:06:42;;;;;;;6.77;5.80;;;9.20;99.90;;;;;;5014608;28;20202;-67
2022/09/29 01:09:10;;;;;;;8.20;6.07;;;9.20;99.90;;;;;;5026280;28;20541;-66
2022/09/29 01:11:36;;;;;;;7.43;6.23;;;9.20;99.90;;;;;;5042360;28;20214;-66
2022/09/29 01:14:05;;;;;;;7.10;6.40;;;9.20;99.90;;;;;;5026356;28;20323;-65
2022/09/29 01:16:33;;;;;;;6.47;5.77;;;9.20;99.90;;;;;;5031258;28;20203;-66
2022/09/29 01:19:00;;;;;;;6.30;5.70;;;9.20;99.90;;;;;;5025206;28;21060;-66
2022/09/29 01:21:47;;;;;;;12.37;6.40;;;9.20;99.90;;;;;;5026834;28;20191;-65
2022/09/29 01:24:38;;;;;;;6.57;5.80;;;9.20;99.90;;;;;;5014923;28;20217;-67
2022/09/29 01:27:41;;;;;;;6.13;5.53;;;9.20;99.90;;;;;;5019938;28;20604;-66
2022/09/29 01:30:27;;;;;;;7.40;6.53;;;9.20;99.90;;;;;;5023811;28;20180;-66
2022/09/29 01:33:10;;;;;;;6.73;6.00;;;9.20;99.90;;;;;;5018249;28;20273;-66
2022/09/29 01:36:01;;;;;;;6.90;6.27;;;9.20;99.90;;;;;;5014191;28;20191;-66
2022/09/29 01:38:51;;;;;;;6.40;5.83;;;9.20;99.90;;;;;;5021808;28;20236;-66
2022/09/29 01:41:28;;;;;;;7.63;6.50;;;9.30;99.90;;;;;;5031318;28;20666;-66
2022/09/29 01:44:02;;;;;;;6.87;6.03;;;9.30;99.90;;;;;;5013746;28;20715;-66
2022/09/29 01:46:36;;;;;;;7.10;6.40;;;9.30;99.90;;;;;;5024986;28;20200;-66
2022/09/29 01:49:03;;;;;;;6.83;6.00;;;9.30;99.90;;;;;;5013703;28;20194;-67
2022/09/29 01:52:00;;;;;;;7.57;6.47;;;9.30;99.90;;;;;;5028476;28;20700;-67
2022/09/29 01:54:54;;;;;;;7.53;6.67;;;9.40;99.90;;;;;;5017764;28;20209;-67
2022/09/29 01:57:32;;;;;;;9.20;6.43;;;9.40;99.90;;;;;;5025398;28;20727;-67
2022/09/29 02:00:11;;;;;;;8.00;6.80;;;9.40;99.90;;;;;;5023502;28;20705;-67
2022/09/29 02:02:58;;;;;;;9.93;7.43;;;9.40;99.90;;;;;;5020001;28;20564;-67
2022/09/29 02:05:32;;;;;;;8.07;7.23;;;9.40;99.90;;;;;;5011835;28;20215;-67
2022/09/29 02:08:05;;;;;;;9.10;7.07;;;9.30;99.90;;;;;;5022835;28;20191;-67
2022/09/29 02:10:39;;;;;;;9.70;7.27;;;9.30;99.90;;;;;;5017745;28;20192;-67
2022/09/29 02:13:10;;;;;;;8.97;7.50;;;9.30;99.90;;;;;;5011646;28;20196;-67
2022/09/29 02:15:39;;;;;;;8.60;7.43;;;9.30;99.90;;;;;;5025832;28;20956;-67
2022/09/29 02:18:32;;;;;;;10.10;7.23;;;9.30;99.90;;;;;;5027840;28;20705;-67
2022/09/29 02:20:58;;;;;;;8.57;6.77;;;9.40;99.90;;;;;;5024764;28;20235;-67
2022/09/29 02:23:23;;;;;;;11.27;8.13;;;9.40;99.90;;;;;;5032798;28;20251;-67
2022/09/29 02:25:49;;;;;;;8.93;7.33;;;9.30;99.90;;;;;;5031096;28;20283;-67
2022/09/29 02:28:16;;;;;;;7.40;6.70;;;9.40;99.90;;;;;;5025827;28;20272;-67
2022/09/29 02:30:41;;;;;;;9.27;8.10;;;9.40;99.90;;;;;;5036893;28;20659;-67
2022/09/29 02:33:17;;;;;;;10.47;7.70;;;9.40;99.90;;;;;;5034811;28;20294;-67
2022/09/29 02:36:07;;;;;;;8.20;6.87;;;9.40;99.90;;;;;;5025937;28;20197;-67
2022/09/29 02:38:50;;;;;;;8.60;7.70;;;9.40;99.90;;;;;;5014521;28;20205;-67
2022/09/29 02:41:49;;;;;;;9.13;7.87;;;9.40;99.90;;;;;;5017855;28;20661;-67
2022/09/29 02:44:50;;;;;;;11.63;7.60;;;9.40;99.90;;;;;;5029970;28;20299;-67
2022/09/29 02:47:49;;;;;;;8.57;7.10;;;9.40;99.90;;;;;;5016710;28;20229;-67
2022/09/29 02:50:37;;;;;;;9.03;7.60;;;9.40;99.90;;;;;;5017635;28;20231;-67
2022/09/29 02:53:21;;;;;;;9.10;8.00;;;9.40;99.90;;;;;;5027055;28;20566;-67
2022/09/29 02:56:02;;;;;;;8.53;7.63;;;9.30;99.90;;;;;;5017036;28;20197;-67
2022/09/29 02:58:43;;;;;;;11.77;8.50;;;9.30;99.90;;;;;;5022158;28;20680;-67
2022/09/29 03:01:09;;;;;;;9.63;8.60;;;9.30;99.90;;;;;;5017380;28;20264;-67
2022/09/29 03:03:34;;;;;;;10.20;7.57;;;9.30;99.90;;;;;;5030398;28;20200;-67
2022/09/29 03:06:00;;;;;;;8.77;7.53;;;9.30;99.90;;;;;;5037407;28;20192;-67
2022/09/29 03:08:25;;;;;;;7.57;6.77;;;9.30;99.90;;;;;;5027457;28;20204;-67
2022/09/29 03:10:51;;;;;;;8.30;7.50;;;9.40;99.90;;;;;;5030105;28;20184;-67
2022/09/29 03:13:17;;;;;;;7.53;6.83;;;9.40;99.90;;;;;;5037361;28;20719;-67
2022/09/29 03:15:43;;;;;;;6.80;6.20;;;9.40;99.90;;;;;;5035278;28;20746;-68
2022/09/29 03:18:09;;;;;;;7.80;7.07;;;9.40;99.90;;;;;;5029978;28;20561;-67
2022/09/29 03:20:34;;;;;;;8.07;7.27;;;9.40;99.90;;;;;;5029147;28;20232;-67
2022/09/29 03:23:00;;;;;;;9.70;7.73;;;9.40;99.90;;;;;;5026831;28;20224;-67
2022/09/29 03:25:25;;;;;;;7.67;6.97;;;9.40;99.90;;;;;;5014537;28;20206;-68
2022/09/29 03:27:51;;;;;;;9.70;7.33;;;9.40;99.90;;;;;;5026810;28;20232;-68
2022/09/29 03:30:18;;;;;;;8.63;7.77;;;9.40;99.90;;;;;;5019176;28;20180;-69
2022/09/29 03:32:43;;;;;;;8.53;7.63;;;9.40;99.90;;;;;;5032818;28;20200;-68
2022/09/29 03:35:10;;;;;;;8.40;7.60;;;9.30;99.90;;;;;;5028363;28;20230;-68
2022/09/29 03:37:36;;;;;;;8.23;7.37;;;9.30;99.90;;;;;;5044552;28;20557;-67
2022/09/29 03:40:03;;;;;;;8.63;7.83;;;9.30;99.90;;;;;;5017523;28;20723;-67
2022/09/29 03:42:28;;;;;;;9.60;8.57;;;9.30;99.90;;;;;;5044723;28;20260;-66
2022/09/29 03:44:54;;;;;;;8.97;7.27;;;9.20;99.90;;;;;;5022610;28;20211;-67
2022/09/29 03:47:19;;;;;;;8.63;7.83;;;9.20;99.90;;;;;;5025283;28;20196;-66
2022/09/29 03:49:45;;;;;;;8.43;7.53;;;9.20;99.90;;;;;;5022835;28;20197;-66
2022/09/29 03:52:10;;;;;;;8.20;7.50;;;9.20;99.90;;;;;;5033379;28;20267;-68
2022/09/29 03:54:36;;;;;;;9.53;8.20;;;9.30;99.90;;;;;;5028501;28;20246;-68
2022/09/29 03:57:01;;;;;;;8.77;7.13;;;9.30;99.90;;;;;;5044236;28;20203;-68
2022/09/29 03:59:27;;;;;;;9.53;8.00;;;9.30;99.90;;;;;;5029344;28;20201;-68
2022/09/29 04:01:52;;;;;;;8.20;7.13;;;9.30;99.90;;;;;;5033324;28;20245;-68
2022/09/29 04:04:18;;;;;;;8.93;8.03;;;9.30;99.90;;;;;;5026635;28;20203;-68
2022/09/29 04:06:43;;;;;;;10.03;9.03;;;9.40;99.90;;;;;;5041973;28;20285;-68
2022/09/29 04:09:09;;;;;;;8.80;8.00;;;9.40;99.90;;;;;;5027813;28;20213;-68
2022/09/29 04:11:34;;;;;;;9.90;8.03;;;9.40;99.90;;;;;;5038514;28;20764;-67
2022/09/29 04:14:00;;;;;;;8.40;7.60;;;9.40;99.90;;;;;;5026308;28;20269;-67
2022/09/29 04:16:25;;;;;;;9.17;8.20;;;9.40;99.90;;;;;;5036004;28;20714;-67
2022/09/29 04:18:51;;;;;;;10.23;9.23;;;9.40;99.90;;;;;;5031299;28;20305;-67
2022/09/29 04:21:16;;;;;;;12.20;8.93;;;9.40;99.90;;;;;;5027444;28;20241;-66
2022/09/29 04:23:42;;;;;;;10.33;9.17;;;9.40;99.90;;;;;;5032397;28;20932;-66
2022/09/29 04:26:08;;;;;;;10.13;8.30;;;9.30;99.90;;;;;;5042441;28;20677;-66
2022/09/29 04:28:35;;;;;;;10.40;9.37;;;9.30;99.90;;;;;;5036354;28;20255;-67
2022/09/29 04:31:01;;;;;;;11.17;9.57;;;9.30;99.90;;;;;;5027598;28;20197;-66
2022/09/29 04:33:28;;;;;;;10.20;9.00;;;9.30;99.90;;;;;;5026102;28;20234;-67
2022/09/29 04:35:54;;;;;;;12.90;10.87;;;9.30;99.90;;;;;;5016384;28;20203;-66
2022/09/29 04:38:20;;;;;;;9.77;8.47;;;9.40;99.90;;;;;;5030237;28;20296;-66
2022/09/29 04:40:46;;;;;;;12.17;10.07;;;9.40;99.90;;;;;;5018552;28;20184;-66
2022/09/29 04:43:12;;;;;;;11.23;10.00;;;9.40;99.90;;;;;;5031482;28;20202;-66
2022/09/29 04:45:37;;;;;;;10.20;9.20;;;9.40;99.90;;;;;;5023532;28;20283;-67
2022/09/29 04:48:03;;;;;;;11.57;9.57;;;9.40;99.90;;;;;;5036475;28;20208;-66
2022/09/29 04:50:29;;;;;;;11.30;10.13;;;9.40;99.90;;;;;;5027555;28;20219;-67
2022/09/29 04:52:54;;;;;;;12.40;9.67;;;9.40;99.90;;;;;;5030434;28;20258;-66
2022/09/29 04:55:20;;;;;;;11.47;10.30;;;9.40;99.90;;;;;;5013308;28;20244;-66
2022/09/29 04:57:46;;;;;;;11.30;9.67;;;9.40;99.90;;;;;;5026466;28;20203;-66
2022/09/29 05:00:12;;;;;;;11.40;9.87;;;9.40;99.90;;;;;;5026613;28;20188;-66
2022/09/29 05:02:37;;;;;;;10.73;9.50;;;9.40;99.90;;;;;;5029751;28;20204;-66
2022/09/29 05:05:05;;;;;;;13.10;9.03;;;9.40;99.90;;;;;;5024782;28;20216;-66
2022/09/29 05:07:33;;;;;;;12.93;10.20;;;9.50;99.90;;;;;;5026399;28;20196;-66
2022/09/29 05:09:58;;;;;;;11.67;9.57;;;9.50;99.90;;;;;;5025043;28;20759;-67
2022/09/29 05:12:24;;;;;;;10.17;9.10;;;9.50;99.90;;;;;;5031110;28;20191;-67
2022/09/29 05:14:49;;;;;;;14.70;10.77;;;9.50;99.90;;;;;;5026857;28;20243;-67
2022/09/29 05:17:14;;;;;;;14.63;9.93;;;9.50;99.90;;;;;;5028060;28;20188;-68
2022/09/29 05:19:40;;;;;;;11.00;9.97;;;9.50;99.90;;;;;;5022805;28;20227;-68
2022/09/29 05:22:05;;;;;;;11.10;9.93;;;9.50;99.90;;;;;;5025637;28;20192;-66
2022/09/29 05:24:31;;;;;;;13.17;11.47;;;9.60;99.90;;;;;;5028945;28;20214;-66
2022/09/29 05:26:56;;;;;;;14.43;10.97;;;9.60;99.90;;;;;;5035161;28;20660;-64
2022/09/29 05:29:22;;;;;;;12.37;10.87;;;9.60;99.90;;;;;;5028309;28;20240;-66
2022/09/29 05:31:48;;;;;;;13.53;11.07;;;9.60;99.90;;;;;;5044822;28;20653;-67
2022/09/29 05:34:13;;;;;;;12.57;10.90;;;9.60;99.90;;;;;;5024378;28;20208;-66
2022/09/29 05:36:39;;;;;;;11.93;9.30;;;9.60;99.90;;;;;;5032293;28;20195;-66
2022/09/29 05:39:04;;;;;;;13.63;9.67;;;9.60;99.90;;;;;;5033108;28;20216;-66
2022/09/29 05:41:30;;;;;;;17.07;10.10;;;9.60;99.90;;;;;;5030062;28;20197;-67
2022/09/29 05:43:55;;;;;;;12.00;9.63;;;9.60;99.90;;;;;;5024257;28;20279;-69
2022/09/29 05:46:21;;;;;;;11.60;10.27;;;9.70;99.90;;;;;;5030876;28;20214;-67
2022/09/29 05:48:48;;;;;;;12.87;11.10;;;9.70;99.90;;;;;;5035685;28;20206;-66
2022/09/29 05:51:16;;;;;;;13.83;11.50;;;9.70;99.90;;;;;;5026656;28;20240;-68
2022/09/29 05:53:42;;;;;;;14.90;10.93;;;9.80;99.90;;;;;;5035220;28;20709;-68
2022/09/29 05:56:17;;;;;;;11.93;10.73;;;9.70;99.90;;;;;;5025750;28;20186;-68
2022/09/29 05:58:43;;;;;;;14.67;11.53;;;9.70;99.90;;;;;;5026929;28;20202;-68
2022/09/29 06:01:18;;;;;;;14.27;10.37;;;9.70;99.90;;;;;;5009809;28;20540;-68
2022/09/29 06:03:44;;;;;;;11.67;9.70;;;9.80;99.90;;;;;;5030485;28;20197;-67
2022/09/29 06:06:10;;;;;;;14.13;11.13;;;9.80;99.90;;;;;;5021616;28;20198;-68
2022/09/29 06:08:37;;;;;;;12.27;10.97;;;9.90;99.90;;;;;;5034893;28;20194;-66
2022/09/29 06:11:11;;;;;;;11.03;9.93;;;9.90;99.90;;;;;;5024366;28;20963;-66
2022/09/29 06:13:41;;;;;;;12.47;10.57;;;10.00;99.90;;;;;;5016386;28;20190;-66
2022/09/29 06:16:08;;;;;;;14.30;10.57;;;10.00;99.90;;;;;;5024583;28;20449;-66
2022/09/29 06:18:34;;;;;;;15.67;11.17;;;10.00;99.90;;;;;;5031357;28;20262;-66
2022/09/29 06:21:23;;;;;;;12.00;10.27;;;10.10;99.90;;;;;;5022631;28;20280;-66
2022/09/29 06:23:49;;;;;;;13.10;10.70;;;10.20;99.90;;;;;;5013043;28;20207;-66
2022/09/29 06:26:17;;;;;;;11.93;10.67;;;10.20;99.90;;;;;;5025185;28;20741;-67
2022/09/29 06:28:42;;;;;;;15.53;11.07;;;10.30;99.90;;;;;;5026079;28;20205;-67
2022/09/29 06:31:14;;;;;;;14.47;10.80;;;10.30;99.90;;;;;;5013587;28;20718;-68
2022/09/29 06:33:40;;;;;;;12.53;10.40;;;10.40;99.90;;;;;;5026799;28;20199;-67
2022/09/29 06:39:11;;;;;;;12.30;9.87;;;10.40;99.90;;;;;;5012606;28;20265;-67
2022/09/29 06:41:36;;;;;;;12.77;11.27;;;10.40;99.90;;;;;;5037061;28;20254;-67
2022/09/29 06:44:02;;;;;;;13.40;10.87;;;10.40;99.90;;;;;;5031058;28;20604;-67
2022/09/29 06:46:27;;;;;;;15.13;11.57;;;10.50;99.90;;;;;;5029165;28;20278;-67
2022/09/29 06:48:54;;;;;;;12.20;10.90;;;10.40;99.90;;;;;;5028281;28;20210;-67
2022/09/29 06:51:23;;;;;;;11.97;9.90;;;10.40;99.90;;;;;;5031525;28;20221;-67
2022/09/29 06:53:50;;;;;;;15.57;11.00;;;10.30;99.90;;;;;;5036781;28;20291;-66
2022/09/29 06:56:16;;;;;;;13.60;10.97;;;10.40;99.90;;;;;;5007920;28;20182;-66
2022/09/29 06:58:43;;;;;;;12.40;10.63;;;10.50;99.90;;;;;;5025367;28;20614;-67
2022/09/29 07:01:09;;;;;;;13.93;10.50;;;10.60;99.90;;;;;;5013657;28;20194;-66
2022/09/29 07:03:34;;;;;;;12.27;10.47;;;10.70;99.90;;;;;;5026316;28;20255;-66
2022/09/29 07:06:04;;;;;;;11.40;10.20;;;10.70;99.90;;;;;;5018626;28;20209;-67
2022/09/29 07:08:30;;;;;;;11.70;10.20;;;10.70;99.90;;;;;;5031285;28;20197;-66
2022/09/29 07:10:56;;;;;;;12.13;10.40;;;10.70;99.90;;;;;;5025195;28;20700;-66
2022/09/29 07:13:21;;;;;;;13.03;10.77;;;10.80;99.90;;;;;;5036301;28;20199;-68
2022/09/29 07:15:48;;;;;;;12.07;9.60;;;10.80;99.90;;;;;;5024176;28;20223;-66
2022/09/29 07:18:13;;;;;;;12.13;9.87;;;10.80;99.90;;;;;;5032950;28;20320;-66
2022/09/29 07:20:39;;;;;;;10.93;9.83;;;10.80;99.90;;;;;;5016877;28;20272;-66
2022/09/29 07:23:07;;;;;;;11.50;10.23;;;10.80;99.90;;;;;;5027490;28;20535;-67
2022/09/29 07:25:33;;;;;;;14.13;10.57;;;10.80;99.90;;;;;;5016045;28;20228;-67
2022/09/29 07:27:59;;;;;;;11.47;10.27;;;10.80;99.90;;;;;;5044995;28;20533;-68
2022/09/29 07:30:26;;;;;;;12.23;9.33;;;10.90;99.90;;;;;;5027761;28;20597;-67
2022/09/29 07:32:55;;;;;;;12.20;10.40;;;11.00;99.90;;;;;;5029514;28;20190;-68
2022/09/29 07:35:21;;;;;;;14.00;10.80;;;11.20;99.90;;;;;;5028629;28;20841;-68
2022/09/29 07:37:53;;;;;;;10.77;9.67;;;11.30;99.90;;;;;;5034994;28;20194;-79
2022/09/29 07:40:21;;;;;;;12.03;10.83;;;11.40;99.90;;;;;;5019040;28;20562;-68
2022/09/29 07:42:46;;;;;;;12.80;10.93;;;11.50;99.90;;;;;;5029702;28;20276;-64
2022/09/29 07:45:12;;;;;;;11.30;9.80;;;11.50;99.90;;;;;;5025048;28;20311;-63
2022/09/29 07:47:38;;;;;;;14.13;11.27;;;11.50;99.90;;;;;;5034294;28;20195;-65
2022/09/29 07:50:04;;;;;;;13.43;11.53;;;11.50;99.90;;;;;;5029718;28;20776;-63
2022/09/29 07:52:29;;;;;;;12.10;10.73;;;11.50;99.90;;;;;;5027714;28;20425;-65
2022/09/29 07:54:55;;;;;;;16.20;11.57;;;11.40;99.90;;;;;;5031666;28;20210;-64
2022/09/29 07:57:20;;;;;;;12.57;10.67;;;11.40;99.90;;;;;;5028434;28;20237;-64
2022/09/29 07:59:46;;;;;;;16.40;11.17;;;11.30;99.90;;;;;;5032292;28;20676;-64
2022/09/29 08:02:11;;;;;;;14.10;11.43;;;11.40;99.90;;;;;;5021158;28;20196;-65
2022/09/29 08:04:37;;;;;;;14.40;12.83;;;11.50;99.90;;;;;;5021818;28;20218;-65
2022/09/29 08:07:06;;;;;;;13.50;10.73;;;11.50;99.90;;;;;;5023564;28;20201;-65
2022/09/29 08:09:32;;;;;;;18.03;12.33;;;11.40;99.90;;;;;;5022070;28;20230;-64
2022/09/29 08:11:57;;;;;;;16.30;12.13;;;11.30;99.90;;;;;;5032219;28;20257;-65
2022/09/29 08:14:23;;;;;;;15.93;13.53;;;11.40;99.90;;;;;;5025790;28;20187;-65
2022/09/29 08:16:48;;;;;;;15.00;12.53;;;11.40;99.90;;;;;;5023101;28;20271;-63
2022/09/29 08:19:14;;;;;;;13.93;11.80;;;11.60;99.90;;;;;;5036782;28;20682;-63
2022/09/29 08:21:39;;;;;;;14.33;11.80;;;11.50;99.90;;;;;;5010460;28;20547;-68
2022/09/29 08:24:06;;;;;;;14.60;13.03;;;11.70;99.90;;;;;;5036762;28;20396;-64
2022/09/29 08:26:34;;;;;;;15.20;13.50;;;11.70;99.90;;;;;;5022305;28;20204;-71
2022/09/29 08:29:01;;;;;;;13.57;11.63;;;11.80;99.90;;;;;;5029062;28;20721;-65
2022/09/29 08:31:26;;;;;;;13.67;11.57;;;12.00;99.90;;;;;;5013103;28;20189;-65
2022/09/29 08:33:51;;;;;;;12.50;10.40;;;12.00;99.90;;;;;;5016106;28;20188;-64
2022/09/29 08:36:21;;;;;;;16.17;13.53;;;11.90;99.90;;;;;;5010905;28;20275;-63
2022/09/29 08:38:52;;;;;;;14.57;12.30;;;12.00;99.90;;;;;;5029098;28;20222;-63
2022/09/29 08:41:37;;;;;;;12.60;11.17;;;12.10;99.90;;;;;;5025502;28;20205;-64
2022/09/29 08:44:11;;;;;;;12.93;11.17;;;12.20;99.90;;;;;;5023907;28;20345;-65
2022/09/29 08:46:43;;;;;;;14.40;11.23;;;12.20;99.90;;;;;;5018433;28;20191;-65
2022/09/29 08:49:18;;;;;;;13.90;11.83;;;12.20;99.90;;;;;;5016790;28;20199;-64
2022/09/29 08:51:55;;;;;;;16.03;12.37;;;12.20;99.90;;;;;;5018000;28;20322;-65
2022/09/29 08:54:30;;;;;;;13.90;10.37;;;12.20;99.90;;;;;;5018153;28;20567;-65
2022/09/29 08:56:57;;;;;;;13.53;10.73;;;12.30;99.90;;;;;;5017871;28;20202;-64
2022/09/29 08:59:24;;;;;;;14.57;11.03;;;12.30;99.90;;;;;;5018236;28;20196;-64
2022/09/29 09:02:05;;;;;;;13.53;11.30;;;12.30;99.90;;;;;;5017397;28;20184;-63
2022/09/29 09:04:50;;;;;;;16.30;12.57;;;12.40;99.90;;;;;;5019155;28;20358;-63
2022/09/29 09:07:27;;;;;;;13.50;12.00;;;12.60;99.90;;;;;;5012138;28;20171;-64
2022/09/29 09:10:20;;;;;;;12.67;10.50;;;12.80;99.90;;;;;;5019543;28;20622;-63
2022/09/29 09:13:03;;;;;;;16.07;12.10;;;13.00;99.90;;;;;;5017585;28;20192;-62
2022/09/29 09:16:06;;;;;;;12.43;10.90;;;13.10;99.90;;;;;;5012905;28;20289;-65
2022/09/29 09:18:58;;;;;;;12.37;10.70;;;13.20;99.90;;;;;;5014499;28;20188;-64
2022/09/29 09:21:36;;;;;;;13.30;10.83;;;13.30;99.90;;;;;;5013006;28;20426;-64
2022/09/29 09:24:35;;;;;;;12.10;10.50;;;13.50;99.90;;;;;;5015296;28;20202;-64
2022/09/29 09:27:02;;;;;;;11.87;10.17;;;13.50;99.90;;;;;;5016727;28;20180;-64
2022/09/29 09:29:41;;;;;;;13.70;9.93;;;13.50;99.90;;;;;;5016148;28;20235;-62
2022/09/29 09:32:20;;;;;;;12.30;9.73;;;13.50;99.90;;;;;;5016694;28;20328;-63
2022/09/29 09:35:05;;;;;;;12.10;10.80;;;13.40;99.90;;;;;;5013853;28;20265;-63
2022/09/29 09:37:38;;;;;;;13.90;9.57;;;13.30;99.90;;;;;;5013252;28;20235;-64
2022/09/29 09:40:19;;;;;;;12.03;9.63;;;13.50;99.90;;;;;;5016354;28;20723;-66
2022/09/29 09:42:52;;;;;;;12.67;10.73;;;13.50;99.90;;;;;;5023297;28;20676;-63
2022/09/29 09:45:30;;;;;;;11.20;9.73;;;13.50;99.90;;;;;;5029805;28;20219;-63
2022/09/29 09:48:07;;;;;;;15.20;10.90;;;13.50;99.90;;;;;;5010794;28;20206;-63
2022/09/29 09:50:38;;;;;;;12.23;10.53;;;13.30;99.90;;;;;;5017055;28;20504;-63
2022/09/29 09:53:10;;;;;;;10.73;9.57;;;13.30;99.90;;;;;;5037207;28;20272;-63
2022/09/29 09:55:36;;;;;;;10.47;8.53;;;13.50;99.90;;;;;;5015021;28;20215;-62
2022/09/29 09:58:42;;;;;;;10.87;8.67;;;13.70;99.90;;;;;;5031897;28;20199;-62
2022/09/29 10:01:08;;;;;;;8.50;7.40;;;13.70;99.90;;;;;;5022526;28;20238;-66
2022/09/29 10:03:35;;;;;;;7.20;6.50;;;13.80;99.90;;;;;;5031541;28;20196;-65
2022/09/29 10:06:00;;;;;;;6.47;5.87;;;13.80;99.90;;;;;;5020180;28;20238;-70
2022/09/29 10:08:29;;;;;;;7.23;6.00;;;13.70;99.90;;;;;;5023013;28;20195;-68
2022/09/29 10:10:57;;;;;;;6.40;5.80;;;13.90;99.90;;;;;;5023929;28;20219;-73
2022/09/29 10:13:27;;;;;;;6.20;5.60;;;14.10;99.90;;;;;;5012936;28;20937;-65
2022/09/29 10:16:14;;;;;;;6.20;5.60;;;14.20;99.90;;;;;;5012786;28;20266;-65
2022/09/29 10:18:47;;;;;;;6.03;5.53;;;14.30;99.90;;;;;;5014558;28;20180;-64
2022/09/29 10:21:28;;;;;;;6.17;5.37;;;14.40;99.90;;;;;;5016955;28;20222;-63
2022/09/29 10:23:55;;;;;;;6.30;5.70;;;14.60;99.90;;;;;;5011558;28;20230;-64
2022/09/29 10:26:24;;;;;;;4.93;4.53;;;14.70;99.90;;;;;;5014989;28;20196;-63
2022/09/29 10:28:59;;;;;;;4.53;4.17;;;14.90;99.90;;;;;;5013770;28;20667;-64
2022/09/29 10:31:29;;;;;;;6.03;4.73;;;14.90;99.90;;;;;;5016657;28;20720;-63
2022/09/29 10:34:01;;;;;;;4.90;4.47;;;15.10;99.90;;;;;;5015239;28;20191;-64
2022/09/29 10:36:32;;;;;;;4.53;4.13;;;15.30;99.90;;;;;;5024300;28;20176;-64
2022/09/29 10:38:58;;;;;;;7.00;4.40;;;15.60;99.90;;;;;;5012824;28;20655;-69
2022/09/29 10:41:24;;;;;;;4.77;4.23;;;15.90;99.90;;;;;;5023597;28;20857;-68
2022/09/29 10:43:51;;;;;;;4.13;3.73;;;16.10;99.90;;;;;;5023393;28;20286;-64
2022/09/29 10:46:45;;;;;;;6.20;4.30;;;16.10;99.90;;;;;;5015178;28;20658;-73
2022/09/29 10:49:16;;;;;;;3.27;3.07;;;16.20;99.90;;;;;;5014541;28;20746;-70
2022/09/29 10:51:59;;;;;;;6.87;3.60;;;16.00;99.90;;;;;;5018804;28;20281;-66
2022/09/29 10:54:26;;;;;;;4.73;4.00;;;15.70;99.90;;;;;;5012262;28;20199;-71
2022/09/29 10:56:53;;;;;;;5.13;4.70;;;15.20;99.90;;;;;;5015505;28;20188;-66
2022/09/29 10:59:20;;;;;;;4.90;4.23;;;14.60;99.90;;;;;;5036238;28;20569;-66
2022/09/29 11:01:56;;;;;;;6.03;4.97;;;14.40;99.90;;;;;;5025911;28;20265;-66
2022/09/29 11:04:27;;;;;;;4.70;3.97;;;14.00;99.90;;;;;;5019987;28;20241;-66
2022/09/29 11:06:53;;;;;;;4.73;4.33;;;13.70;99.90;;;;;;5026373;28;20202;-66
2022/09/29 11:09:18;;;;;;;7.40;4.77;;;13.50;99.90;;;;;;5034602;28;21417;-66
2022/09/29 11:11:46;;;;;;;4.07;3.77;;;13.80;99.90;;;;;;5027093;28;20410;-66
2022/09/29 11:14:38;;;;;;;5.13;3.93;;;14.00;99.90;;;;;;5026202;28;20226;-65
2022/09/29 11:17:22;;;;;;;4.03;3.73;;;14.20;99.90;;;;;;5015455;28;20192;-66
2022/09/29 11:19:50;;;;;;;3.23;2.60;;;14.30;99.90;;;;;;5032570;28;20212;-70
2022/09/29 11:22:25;;;;;;;3.73;3.33;;;14.40;99.90;;;;;;5028247;28;20307;-67
2022/09/29 11:25:00;;;;;;;3.47;3.17;;;14.40;99.90;;;;;;5011960;28;20226;-67
2022/09/29 11:27:37;;;;;;;2.67;2.47;;;14.30;99.90;;;;;;5018661;28;20270;-68
2022/09/29 11:30:16;;;;;;;2.70;2.50;;;14.20;99.90;;;;;;5017285;28;20198;-69
2022/09/29 11:33:08;;;;;;;2.40;2.20;;;14.10;99.90;;;;;;5028980;28;20196;-67
2022/09/29 11:35:56;;;;;;;2.60;2.40;;;14.00;99.90;;;;;;5021856;28;20732;-82
2022/09/29 11:38:39;;;;;;;2.77;2.57;;;14.20;99.90;;;;;;5019590;28;20192;-66
2022/09/29 11:41:22;;;;;;;3.17;2.20;;;14.20;99.90;;;;;;5014198;28;20202;-66
2022/09/29 11:44:00;;;;;;;2.73;2.43;;;14.30;99.90;;;;;;5022235;28;20499;-68
2022/09/29 11:46:44;;;;;;;4.03;2.60;;;14.30;99.90;;;;;;5016834;28;20216;-64
2022/09/29 11:49:37;;;;;;;2.50;2.30;;;14.30;99.90;;;;;;5018159;28;20626;-65
2022/09/29 11:52:21;;;;;;;2.17;2.03;;;14.30;99.90;;;;;;5022251;28;20760;-64
2022/09/29 11:55:14;;;;;;;2.70;2.50;;;14.60;99.90;;;;;;5013983;28;20567;-65
2022/09/29 11:57:56;;;;;;;2.73;2.53;;;14.70;99.90;;;;;;5026840;28;20187;-65
2022/09/29 12:00:40;;;;;;;4.60;2.30;;;14.80;99.90;;;;;;5021314;28;20218;-64
2022/09/29 12:03:21;;;;;;;2.80;2.60;;;14.80;99.90;;;;;;5023115;28;20198;-72
2022/09/29 12:05:55;;;;;;;2.33;2.13;;;14.90;99.90;;;;;;5014766;28;20212;-69
2022/09/29 12:08:48;;;;;;;2.33;2.23;;;14.90;99.30;;;;;;5019400;28;20184;-69
2022/09/29 12:11:40;;;;;;;8.43;2.50;;;14.90;99.60;;;;;;5019299;28;20200;-65
2022/09/29 12:14:17;;;;;;;3.17;1.83;;;14.80;99.90;;;;;;5015078;28;20271;-68
2022/09/29 12:16:51;;;;;;;2.23;2.07;;;15.00;99.30;;;;;;5016501;28;20183;-66
2022/09/29 12:19:20;;;;;;;3.17;2.77;;;14.80;98.10;;;;;;5020314;28;20241;-66
2022/09/29 12:21:49;;;;;;;2.80;2.60;;;14.80;98.80;;;;;;5018592;28;20244;-67
2022/09/29 12:24:32;;;;;;;2.60;2.40;;;14.90;99.90;;;;;;5018537;28;20219;-65
2022/09/29 12:26:59;;;;;;;4.00;2.40;;;15.10;99.70;;;;;;5007265;28;20192;-66
2022/09/29 12:29:39;;;;;;;3.37;2.37;;;15.30;99.90;;;;;;5016899;28;20199;-71
2022/09/29 12:32:20;;;;;;;2.50;2.30;;;16.00;99.90;;;;;;5022704;28;20186;-68
2022/09/29 12:34:54;;;;;;;3.77;2.23;;;16.80;99.10;;;;;;5023800;28;20195;-65
2022/09/29 12:37:40;;;;;;;2.30;1.90;;;17.60;96.20;;;;;;5010990;28;20786;-65
2022/09/29 12:40:32;;;;;;;1.70;1.50;;;18.10;95.10;;;;;;5021042;28;20582;-68
2022/09/29 12:43:09;;;;;;;2.33;1.93;;;17.70;89.80;;;;;;5007190;28;20184;-68
2022/09/29 12:46:10;;;;;;;2.10;2.00;;;16.90;91.00;;;;;;5013729;28;20223;-65
2022/09/29 12:48:50;;;;;;;2.30;2.20;;;16.30;92.40;;;;;;5021379;28;20286;-64
2022/09/29 12:51:44;;;;;;;2.03;1.93;;;16.10;92.70;;;;;;5021690;28;20231;-67
2022/09/29 12:54:34;;;;;;;3.10;1.90;;;16.20;95.10;;;;;;5016201;28;20283;-65
2022/09/29 12:57:16;;;;;;;1.93;1.83;;;16.30;96.00;;;;;;5016449;28;20193;-65
2022/09/29 13:00:03;;;;;;;1.97;1.87;;;16.50;97.10;;;;;;5017782;28;20647;-65
2022/09/29 13:03:00;;;;;;;1.60;1.50;;;16.30;93.50;;;;;;5014245;28;20183;-64
2022/09/29 13:05:39;;;;;;;1.80;1.70;;;16.40;96.50;;;;;;5012214;28;20215;-65
2022/09/29 13:08:30;;;;;;;3.07;2.07;;;16.40;97.40;;;;;;5013211;28;20646;-65
2022/09/29 13:11:07;;;;;;;3.97;2.47;;;16.30;97.20;;;;;;5016561;28;20666;-65